sensor_id;sensor_type;location;lat;lon;timestamp;temperature;humidity
9768;DHT22;4923;52.520;13.494;2024-01-06T00:00:16;2.10;99.90
9768;DHT22;4923;52.520;13.494;2024-01-06T00:03:03;2.00;99.90
9768;DHT22;4923;52.520;13.494;2024-01-06T00:05:51;2.10;99.90
9768;DHT22;4923;52.520;13.494;2024-01-06T00:08:38;2.00;99.90
9768;DHT22;4923;52.520;13.494;2024-01-06T00:11:25;2.10;99.90
9768;DHT22;4923;52.520;13.494;2024-01-06T00:14:12;2.00;99.90
9768;DHT22;4923;52.520;13.494;2024-01-06T00:16:59;2.00;99.90
9768;DHT22;4923;52.520;13.494;2024-01-06T00:19:45;2.00;99.90
9768;DHT22;4923;52.520;13.494;2024-01-06T00:22:37;2.00;99.90
9768;DHT22;4923;52.520;13.494;2024-01-06T00:25:24;2.10;99.90
9768;DHT22;4923;52.520;13.494;2024-01-06T00:28:11;2.00;99.90
9768;DHT22;4923;52.520;13.494;2024-01-06T00:30:58;2.10;99.90
9768;DHT22;4923;52.520;13.494;2024-01-06T00:33:45;2.10;99.90
9768;DHT22;4923;52.520;13.494;2024-01-06T00:36:31;2.00;99.90
9768;DHT22;4923;52.520;13.494;2024-01-06T00:39:20;2.00;99.90
9768;DHT22;4923;52.520;13.494;2024-01-06T00:42:07;2.10;99.90
9768;DHT22;4923;52.520;13.494;2024-01-06T00:44:54;2.00;99.90
9768;DHT22;4923;52.520;13.494;2024-01-06T00:47:40;2.00;99.90
9768;DHT22;4923;52.520;13.494;2024-01-06T00:50:27;1.90;99.90
9768;DHT22;4923;52.520;13.494;2024-01-06T00:53:14;2.00;99.90
9768;DHT22;4923;52.520;13.494;2024-01-06T00:56:03;2.00;99.90
9768;DHT22;4923;52.520;13.494;2024-01-06T00:58:50;2.00;99.90
9768;DHT22;4923;52.520;13.494;2024-01-06T01:01:36;2.00;99.90
9768;DHT22;4923;52.520;13.494;2024-01-06T01:04:23;2.00;99.90
9768;DHT22;4923;52.520;13.494;2024-01-06T01:07:10;2.10;99.90
9768;DHT22;4923;52.520;13.494;2024-01-06T01:09:58;2.00;99.90
9768;DHT22;4923;52.520;13.494;2024-01-06T01:12:47;2.10;99.90
9768;DHT22;4923;52.520;13.494;2024-01-06T01:15:33;2.00;99.90
9768;DHT22;4923;52.520;13.494;2024-01-06T01:18:20;2.00;99.90
9768;DHT22;4923;52.520;13.494;2024-01-06T01:21:07;2.00;99.90
9768;DHT22;4923;52.520;13.494;2024-01-06T01:23:54;2.10;99.90
9768;DHT22;4923;52.520;13.494;2024-01-06T01:26:41;2.10;99.90
9768;DHT22;4923;52.520;13.494;2024-01-06T01:29:29;2.10;99.90
9768;DHT22;4923;52.520;13.494;2024-01-06T01:32:16;2.00;99.90
9768;DHT22;4923;52.520;13.494;2024-01-06T01:35:03;2.00;99.90
9768;DHT22;4923;52.520;13.494;2024-01-06T01:37:50;2.00;99.90
9768;DHT22;4923;52.520;13.494;2024-01-06T01:40:37;1.90;99.90
9768;DHT22;4923;52.520;13.494;2024-01-06T01:43:23;1.90;99.90
9768;DHT22;4923;52.520;13.494;2024-01-06T01:46:12;1.90;99.90
9768;DHT22;4923;52.520;13.494;2024-01-06T01:49:00;1.90;99.90
9768;DHT22;4923;52.520;13.494;2024-01-06T01:51:49;1.90;99.90
9768;DHT22;4923;52.520;13.494;2024-01-06T01:54:36;1.90;99.90
9768;DHT22;4923;52.520;13.494;2024-01-06T01:57:24;1.90;99.90
9768;DHT22;4923;52.520;13.494;2024-01-06T02:00:13;1.90;99.90
9768;DHT22;4923;52.520;13.494;2024-01-06T02:03:03;1.80;99.90
9768;DHT22;4923;52.520;13.494;2024-01-06T02:05:51;1.80;99.90
9768;DHT22;4923;52.520;13.494;2024-01-06T02:08:38;1.70;99.90
9768;DHT22;4923;52.520;13.494;2024-01-06T02:11:25;1.80;99.90
9768;DHT22;4923;52.520;13.494;2024-01-06T02:14:11;1.70;99.90
9768;DHT22;4923;52.520;13.494;2024-01-06T02:16:58;1.80;99.90
9768;DHT22;4923;52.520;13.494;2024-01-06T02:19:46;1.70;99.90
9768;DHT22;4923;52.520;13.494;2024-01-06T02:22:35;1.80;99.90
9768;DHT22;4923;52.520;13.494;2024-01-06T02:25:22;1.70;99.90
9768;DHT22;4923;52.520;13.494;2024-01-06T02:28:09;1.70;99.90
9768;DHT22;4923;52.520;13.494;2024-01-06T02:30:56;1.70;99.90
9768;DHT22;4923;52.520;13.494;2024-01-06T02:33:43;1.80;99.90
9768;DHT22;4923;52.520;13.494;2024-01-06T02:36:30;1.60;99.90
9768;DHT22;4923;52.520;13.494;2024-01-06T02:39:18;1.80;99.90
9768;DHT22;4923;52.520;13.494;2024-01-06T02:42:05;1.80;99.90
9768;DHT22;4923;52.520;13.494;2024-01-06T02:44:52;1.80;99.90
9768;DHT22;4923;52.520;13.494;2024-01-06T02:47:39;1.80;99.90
9768;DHT22;4923;52.520;13.494;2024-01-06T02:50:25;1.80;99.90
9768;DHT22;4923;52.520;13.494;2024-01-06T02:53:12;1.80;99.90
9768;DHT22;4923;52.520;13.494;2024-01-06T02:56:00;1.80;99.90
9768;DHT22;4923;52.520;13.494;2024-01-06T02:58:47;1.90;99.90
9768;DHT22;4923;52.520;13.494;2024-01-06T03:01:34;1.90;99.90
9768;DHT22;4923;52.520;13.494;2024-01-06T03:04:22;1.90;99.90
9768;DHT22;4923;52.520;13.494;2024-01-06T03:07:08;1.90;99.90
9768;DHT22;4923;52.520;13.494;2024-01-06T03:09:56;1.80;99.90
9768;DHT22;4923;52.520;13.494;2024-01-06T03:12:44;1.80;99.90
9768;DHT22;4923;52.520;13.494;2024-01-06T03:15:31;1.90;99.90
9768;DHT22;4923;52.520;13.494;2024-01-06T03:18:17;1.90;99.90
9768;DHT22;4923;52.520;13.494;2024-01-06T03:21:04;1.90;99.90
9768;DHT22;4923;52.520;13.494;2024-01-06T03:23:51;1.80;99.90
9768;DHT22;4923;52.520;13.494;2024-01-06T03:26:38;1.80;99.90
9768;DHT22;4923;52.520;13.494;2024-01-06T03:29:26;1.90;99.90
9768;DHT22;4923;52.520;13.494;2024-01-06T03:32:13;1.80;99.90
9768;DHT22;4923;52.520;13.494;2024-01-06T03:35:00;1.70;99.90
9768;DHT22;4923;52.520;13.494;2024-01-06T03:37:47;1.70;99.90
9768;DHT22;4923;52.520;13.494;2024-01-06T03:40:33;1.80;99.90
9768;DHT22;4923;52.520;13.494;2024-01-06T03:43:20;1.80;99.90
9768;DHT22;4923;52.520;13.494;2024-01-06T03:46:09;1.70;99.90
9768;DHT22;4923;52.520;13.494;2024-01-06T03:48:56;1.70;99.90
9768;DHT22;4923;52.520;13.494;2024-01-06T03:51:43;1.80;99.90
9768;DHT22;4923;52.520;13.494;2024-01-06T03:54:29;1.80;99.90
9768;DHT22;4923;52.520;13.494;2024-01-06T03:57:16;1.80;99.90
9768;DHT22;4923;52.520;13.494;2024-01-06T04:00:05;1.70;99.90
9768;DHT22;4923;52.520;13.494;2024-01-06T04:02:53;1.70;99.90
9768;DHT22;4923;52.520;13.494;2024-01-06T04:05:40;1.80;99.90
9768;DHT22;4923;52.520;13.494;2024-01-06T04:08:27;1.80;99.90
9768;DHT22;4923;52.520;13.494;2024-01-06T04:11:14;1.80;99.90
9768;DHT22;4923;52.520;13.494;2024-01-06T04:14:00;1.80;99.90
9768;DHT22;4923;52.520;13.494;2024-01-06T04:16:47;1.70;99.90
9768;DHT22;4923;52.520;13.494;2024-01-06T04:19:35;1.80;99.90
9768;DHT22;4923;52.520;13.494;2024-01-06T04:22:22;1.70;99.90
9768;DHT22;4923;52.520;13.494;2024-01-06T04:25:09;1.80;99.90
9768;DHT22;4923;52.520;13.494;2024-01-06T04:27:56;1.80;99.90
9768;DHT22;4923;52.520;13.494;2024-01-06T04:30:43;1.70;99.90
9768;DHT22;4923;52.520;13.494;2024-01-06T04:33:29;1.70;99.90
9768;DHT22;4923;52.520;13.494;2024-01-06T04:36:18;1.70;99.90
9768;DHT22;4923;52.520;13.494;2024-01-06T04:39:05;1.80;99.90
9768;DHT22;4923;52.520;13.494;2024-01-06T04:41:52;1.80;99.90
9768;DHT22;4923;52.520;13.494;2024-01-06T04:44:39;1.70;99.90
9768;DHT22;4923;52.520;13.494;2024-01-06T04:47:25;1.70;99.90
9768;DHT22;4923;52.520;13.494;2024-01-06T04:50:13;1.70;99.90
9768;DHT22;4923;52.520;13.494;2024-01-06T04:53:01;1.80;99.90
9768;DHT22;4923;52.520;13.494;2024-01-06T04:55:48;1.80;99.90
9768;DHT22;4923;52.520;13.494;2024-01-06T04:58:35;1.90;99.90
9768;DHT22;4923;52.520;13.494;2024-01-06T05:01:22;1.90;99.90
9768;DHT22;4923;52.520;13.494;2024-01-06T05:04:09;1.70;99.90
9768;DHT22;4923;52.520;13.494;2024-01-06T05:06:56;1.60;99.90
9768;DHT22;4923;52.520;13.494;2024-01-06T05:09:44;1.70;99.90
9768;DHT22;4923;52.520;13.494;2024-01-06T05:12:30;1.70;99.90
9768;DHT22;4923;52.520;13.494;2024-01-06T05:15:17;1.70;99.90
9768;DHT22;4923;52.520;13.494;2024-01-06T05:18:05;1.70;99.90
9768;DHT22;4923;52.520;13.494;2024-01-06T05:20:52;1.70;99.90
9768;DHT22;4923;52.520;13.494;2024-01-06T05:23:38;1.80;99.90
9768;DHT22;4923;52.520;13.494;2024-01-06T05:26:27;1.80;99.90
9768;DHT22;4923;52.520;13.494;2024-01-06T05:29:13;1.70;99.90
9768;DHT22;4923;52.520;13.494;2024-01-06T05:32:00;1.60;99.90
9768;DHT22;4923;52.520;13.494;2024-01-06T05:34:48;1.60;99.90
9768;DHT22;4923;52.520;13.494;2024-01-06T05:37:35;1.60;99.90
9768;DHT22;4923;52.520;13.494;2024-01-06T05:40:22;1.60;99.90
9768;DHT22;4923;52.520;13.494;2024-01-06T05:43:10;1.60;99.90
9768;DHT22;4923;52.520;13.494;2024-01-06T05:45:57;1.60;99.90
9768;DHT22;4923;52.520;13.494;2024-01-06T05:48:44;1.60;99.90
9768;DHT22;4923;52.520;13.494;2024-01-06T05:51:31;1.60;99.90
9768;DHT22;4923;52.520;13.494;2024-01-06T05:54:17;1.60;99.90
9768;DHT22;4923;52.520;13.494;2024-01-06T05:57:04;1.70;99.90
9768;DHT22;4923;52.520;13.494;2024-01-06T05:59:53;1.60;99.90
9768;DHT22;4923;52.520;13.494;2024-01-06T06:02:39;1.60;99.90
9768;DHT22;4923;52.520;13.494;2024-01-06T06:05:26;1.50;99.90
9768;DHT22;4923;52.520;13.494;2024-01-06T06:08:13;1.50;99.90
9768;DHT22;4923;52.520;13.494;2024-01-06T06:11:00;1.60;99.90
9768;DHT22;4923;52.520;13.494;2024-01-06T06:13:47;1.50;99.90
9768;DHT22;4923;52.520;13.494;2024-01-06T06:16:36;1.50;99.90
9768;DHT22;4923;52.520;13.494;2024-01-06T06:19:23;1.40;99.90
9768;DHT22;4923;52.520;13.494;2024-01-06T06:22:09;1.30;99.90
9768;DHT22;4923;52.520;13.494;2024-01-06T06:24:56;1.40;99.90
9768;DHT22;4923;52.520;13.494;2024-01-06T06:27:43;1.30;99.90
9768;DHT22;4923;52.520;13.494;2024-01-06T06:30:30;1.20;99.90
9768;DHT22;4923;52.520;13.494;2024-01-06T06:33:18;1.10;99.90
9768;DHT22;4923;52.520;13.494;2024-01-06T06:36:05;1.10;99.90
9768;DHT22;4923;52.520;13.494;2024-01-06T06:38:52;1.00;99.90
9768;DHT22;4923;52.520;13.494;2024-01-06T06:41:40;1.10;99.90
9768;DHT22;4923;52.520;13.494;2024-01-06T06:44:26;1.10;99.90
9768;DHT22;4923;52.520;13.494;2024-01-06T06:47:13;1.00;99.90
9768;DHT22;4923;52.520;13.494;2024-01-06T06:50:02;1.00;99.90
9768;DHT22;4923;52.520;13.494;2024-01-06T06:52:49;1.00;99.90
9768;DHT22;4923;52.520;13.494;2024-01-06T06:55:36;1.00;99.90
9768;DHT22;4923;52.520;13.494;2024-01-06T06:58:23;1.00;99.90
9768;DHT22;4923;52.520;13.494;2024-01-06T07:01:09;0.90;99.90
9768;DHT22;4923;52.520;13.494;2024-01-06T07:03:56;0.90;99.90
9768;DHT22;4923;52.520;13.494;2024-01-06T07:06:45;1.00;99.90
9768;DHT22;4923;52.520;13.494;2024-01-06T07:09:32;1.00;1.00
9768;DHT22;4923;52.520;13.494;2024-01-06T07:12:18;0.90;99.90
9768;DHT22;4923;52.520;13.494;2024-01-06T07:15:06;0.90;99.90
9768;DHT22;4923;52.520;13.494;2024-01-06T07:17:54;1.00;99.90
9768;DHT22;4923;52.520;13.494;2024-01-06T07:20:41;0.90;99.90
9768;DHT22;4923;52.520;13.494;2024-01-06T07:23:29;1.00;99.90
9768;DHT22;4923;52.520;13.494;2024-01-06T07:26:16;0.90;99.90
9768;DHT22;4923;52.520;13.494;2024-01-06T07:29:03;0.80;99.90
9768;DHT22;4923;52.520;13.494;2024-01-06T07:31:50;0.70;99.90
9768;DHT22;4923;52.520;13.494;2024-01-06T07:34:37;0.80;99.90
9768;DHT22;4923;52.520;13.494;2024-01-06T07:37:23;0.80;99.90
9768;DHT22;4923;52.520;13.494;2024-01-06T07:40:13;0.70;99.90
9768;DHT22;4923;52.520;13.494;2024-01-06T07:43:02;0.80;99.90
9768;DHT22;4923;52.520;13.494;2024-01-06T07:45:50;0.70;99.90
9768;DHT22;4923;52.520;13.494;2024-01-06T07:48:36;0.80;99.90
9768;DHT22;4923;52.520;13.494;2024-01-06T07:51:23;1.10;99.90
9768;DHT22;4923;52.520;13.494;2024-01-06T07:54:10;1.00;99.90
9768;DHT22;4923;52.520;13.494;2024-01-06T07:56:59;1.00;99.90
9768;DHT22;4923;52.520;13.494;2024-01-06T07:59:46;1.00;99.90
9768;DHT22;4923;52.520;13.494;2024-01-06T08:02:32;0.90;99.90
9768;DHT22;4923;52.520;13.494;2024-01-06T08:05:19;0.80;99.90
9768;DHT22;4923;52.520;13.494;2024-01-06T08:08:06;0.90;99.90
9768;DHT22;4923;52.520;13.494;2024-01-06T08:10:53;0.90;99.90
9768;DHT22;4923;52.520;13.494;2024-01-06T08:13:41;0.90;99.90
9768;DHT22;4923;52.520;13.494;2024-01-06T08:16:29;0.80;99.90
9768;DHT22;4923;52.520;13.494;2024-01-06T08:19:16;0.90;99.90
9768;DHT22;4923;52.520;13.494;2024-01-06T08:22:03;0.90;99.90
9768;DHT22;4923;52.520;13.494;2024-01-06T08:24:50;0.90;99.90
9768;DHT22;4923;52.520;13.494;2024-01-06T08:27:37;0.90;99.90
9768;DHT22;4923;52.520;13.494;2024-01-06T08:30:25;0.80;99.90
9768;DHT22;4923;52.520;13.494;2024-01-06T08:33:12;0.80;99.90
9768;DHT22;4923;52.520;13.494;2024-01-06T08:35:59;0.80;99.90
9768;DHT22;4923;52.520;13.494;2024-01-06T08:38:46;0.80;99.90
9768;DHT22;4923;52.520;13.494;2024-01-06T08:41:33;0.80;99.90
9768;DHT22;4923;52.520;13.494;2024-01-06T08:44:20;0.80;99.90
9768;DHT22;4923;52.520;13.494;2024-01-06T08:47:08;0.90;99.90
9768;DHT22;4923;52.520;13.494;2024-01-06T08:49:55;0.90;99.90
9768;DHT22;4923;52.520;13.494;2024-01-06T08:52:42;0.80;99.90
9768;DHT22;4923;52.520;13.494;2024-01-06T08:55:28;1.00;99.90
9768;DHT22;4923;52.520;13.494;2024-01-06T08:58:15;1.00;99.90
9768;DHT22;4923;52.520;13.494;2024-01-06T09:01:03;1.10;99.90
9768;DHT22;4923;52.520;13.494;2024-01-06T09:03:51;1.10;99.90
9768;DHT22;4923;52.520;13.494;2024-01-06T09:06:38;1.10;99.90
9768;DHT22;4923;52.520;13.494;2024-01-06T09:09:25;1.20;99.90
9768;DHT22;4923;52.520;13.494;2024-01-06T09:12:13;1.10;99.90
9768;DHT22;4923;52.520;13.494;2024-01-06T09:15:00;1.00;99.90
9768;DHT22;4923;52.520;13.494;2024-01-06T09:17:47;0.80;99.90
9768;DHT22;4923;52.520;13.494;2024-01-06T09:20:35;0.80;99.90
9768;DHT22;4923;52.520;13.494;2024-01-06T09:23:22;0.80;99.90
9768;DHT22;4923;52.520;13.494;2024-01-06T09:26:09;0.80;99.90
9768;DHT22;4923;52.520;13.494;2024-01-06T09:28:56;0.80;99.90
9768;DHT22;4923;52.520;13.494;2024-01-06T09:31:43;0.80;99.90
9768;DHT22;4923;52.520;13.494;2024-01-06T09:34:30;0.70;99.90
9768;DHT22;4923;52.520;13.494;2024-01-06T09:37:18;0.80;99.90
9768;DHT22;4923;52.520;13.494;2024-01-06T09:40:07;0.80;99.90
9768;DHT22;4923;52.520;13.494;2024-01-06T09:42:56;0.90;99.90
9768;DHT22;4923;52.520;13.494;2024-01-06T09:45:43;0.90;99.90
9768;DHT22;4923;52.520;13.494;2024-01-06T09:48:36;0.90;99.90
9768;DHT22;4923;52.520;13.494;2024-01-06T09:51:26;0.90;99.90
9768;DHT22;4923;52.520;13.494;2024-01-06T09:54:14;1.00;99.90
9768;DHT22;4923;52.520;13.494;2024-01-06T09:57:02;1.00;99.90
9768;DHT22;4923;52.520;13.494;2024-01-06T09:59:50;1.00;99.90
9768;DHT22;4923;52.520;13.494;2024-01-06T10:02:37;1.00;99.90
9768;DHT22;4923;52.520;13.494;2024-01-06T10:05:25;0.90;99.90
9768;DHT22;4923;52.520;13.494;2024-01-06T10:08:11;0.80;99.90
9768;DHT22;4923;52.520;13.494;2024-01-06T10:10:59;0.70;99.90
9768;DHT22;4923;52.520;13.494;2024-01-06T10:13:48;0.60;99.90
9768;DHT22;4923;52.520;13.494;2024-01-06T10:16:36;0.60;99.90
9768;DHT22;4923;52.520;13.494;2024-01-06T10:19:23;0.70;99.90
9768;DHT22;4923;52.520;13.494;2024-01-06T10:22:10;0.70;99.90
9768;DHT22;4923;52.520;13.494;2024-01-06T10:24:57;0.90;99.90
9768;DHT22;4923;52.520;13.494;2024-01-06T10:27:45;0.70;99.90
9768;DHT22;4923;52.520;13.494;2024-01-06T10:30:32;0.70;99.90
9768;DHT22;4923;52.520;13.494;2024-01-06T10:33:19;0.70;99.90
9768;DHT22;4923;52.520;13.494;2024-01-06T10:36:07;0.80;99.90
9768;DHT22;4923;52.520;13.494;2024-01-06T10:38:55;0.70;99.90
9768;DHT22;4923;52.520;13.494;2024-01-06T10:41:43;0.70;99.90
9768;DHT22;4923;52.520;13.494;2024-01-06T10:44:32;0.60;99.90
9768;DHT22;4923;52.520;13.494;2024-01-06T10:47:20;0.60;99.90
9768;DHT22;4923;52.520;13.494;2024-01-06T10:50:07;0.70;99.90
9768;DHT22;4923;52.520;13.494;2024-01-06T10:52:55;0.70;99.90
9768;DHT22;4923;52.520;13.494;2024-01-06T10:55:43;0.70;99.90
9768;DHT22;4923;52.520;13.494;2024-01-06T10:58:32;0.70;99.90
9768;DHT22;4923;52.520;13.494;2024-01-06T11:01:21;0.80;99.90
9768;DHT22;4923;52.520;13.494;2024-01-06T11:04:09;0.70;99.90
9768;DHT22;4923;52.520;13.494;2024-01-06T11:06:56;0.80;99.90
9768;DHT22;4923;52.520;13.494;2024-01-06T11:09:48;0.70;99.90
9768;DHT22;4923;52.520;13.494;2024-01-06T11:12:36;0.70;99.90
9768;DHT22;4923;52.520;13.494;2024-01-06T11:15:39;0.80;99.90
9768;DHT22;4923;52.520;13.494;2024-01-06T11:18:38;0.70;99.90
9768;DHT22;4923;52.520;13.494;2024-01-06T11:21:26;0.70;99.90
9768;DHT22;4923;52.520;13.494;2024-01-06T11:24:15;0.70;99.90
9768;DHT22;4923;52.520;13.494;2024-01-06T11:27:06;0.70;99.90
9768;DHT22;4923;52.520;13.494;2024-01-06T11:29:55;0.70;99.90
9768;DHT22;4923;52.520;13.494;2024-01-06T11:32:42;0.60;99.90
9768;DHT22;4923;52.520;13.494;2024-01-06T11:35:34;0.70;99.90
9768;DHT22;4923;52.520;13.494;2024-01-06T11:38:20;0.60;99.90
9768;DHT22;4923;52.520;13.494;2024-01-06T11:41:44;0.70;99.90
9768;DHT22;4923;52.520;13.494;2024-01-06T11:44:33;0.80;99.90
9768;DHT22;4923;52.520;13.494;2024-01-06T11:47:20;0.90;99.90
9768;DHT22;4923;52.520;13.494;2024-01-06T11:50:09;0.80;99.90
9768;DHT22;4923;52.520;13.494;2024-01-06T11:52:58;0.80;99.90
9768;DHT22;4923;52.520;13.494;2024-01-06T11:55:48;0.80;99.90
9768;DHT22;4923;52.520;13.494;2024-01-06T11:58:35;0.80;99.90
9768;DHT22;4923;52.520;13.494;2024-01-06T12:01:26;0.90;99.90
9768;DHT22;4923;52.520;13.494;2024-01-06T12:04:14;0.90;99.90
9768;DHT22;4923;52.520;13.494;2024-01-06T12:07:07;0.80;99.90
9768;DHT22;4923;52.520;13.494;2024-01-06T12:10:02;0.60;99.90
9768;DHT22;4923;52.520;13.494;2024-01-06T12:12:56;0.60;99.90
9768;DHT22;4923;52.520;13.494;2024-01-06T12:15:45;0.60;99.90
9768;DHT22;4923;52.520;13.494;2024-01-06T12:18:31;0.60;99.90
9768;DHT22;4923;52.520;13.494;2024-01-06T12:21:19;0.50;99.90
9768;DHT22;4923;52.520;13.494;2024-01-06T12:24:13;0.50;99.90
9768;DHT22;4923;52.520;13.494;2024-01-06T12:27:06;0.50;99.90
9768;DHT22;4923;52.520;13.494;2024-01-06T12:29:53;0.50;99.90
9768;DHT22;4923;52.520;13.494;2024-01-06T12:32:40;0.40;99.90
9768;DHT22;4923;52.520;13.494;2024-01-06T12:35:27;0.50;99.90
9768;DHT22;4923;52.520;13.494;2024-01-06T12:38:13;0.40;99.90
9768;DHT22;4923;52.520;13.494;2024-01-06T12:41:00;0.50;99.90
9768;DHT22;4923;52.520;13.494;2024-01-06T12:43:50;0.60;99.90
9768;DHT22;4923;52.520;13.494;2024-01-06T12:46:36;0.50;99.90
9768;DHT22;4923;52.520;13.494;2024-01-06T12:49:23;0.50;99.90
9768;DHT22;4923;52.520;13.494;2024-01-06T12:52:10;0.60;99.90
9768;DHT22;4923;52.520;13.494;2024-01-06T12:54:57;0.60;99.90
9768;DHT22;4923;52.520;13.494;2024-01-06T12:57:44;0.60;99.90
9768;DHT22;4923;52.520;13.494;2024-01-06T13:00:32;0.50;99.90
9768;DHT22;4923;52.520;13.494;2024-01-06T13:03:20;0.40;99.90
9768;DHT22;4923;52.520;13.494;2024-01-06T13:06:06;0.50;99.90
9768;DHT22;4923;52.520;13.494;2024-01-06T13:08:54;0.50;99.90
9768;DHT22;4923;52.520;13.494;2024-01-06T13:11:40;0.60;99.90
9768;DHT22;4923;52.520;13.494;2024-01-06T13:14:27;0.60;99.90
9768;DHT22;4923;52.520;13.494;2024-01-06T13:17:17;0.50;99.90
9768;DHT22;4923;52.520;13.494;2024-01-06T13:20:04;0.60;99.90
9768;DHT22;4923;52.520;13.494;2024-01-06T13:22:51;0.70;99.90
9768;DHT22;4923;52.520;13.494;2024-01-06T13:25:38;0.70;99.90
9768;DHT22;4923;52.520;13.494;2024-01-06T13:28:26;0.70;99.90
9768;DHT22;4923;52.520;13.494;2024-01-06T13:31:12;0.70;99.90
9768;DHT22;4923;52.520;13.494;2024-01-06T13:34:01;0.60;99.90
9768;DHT22;4923;52.520;13.494;2024-01-06T13:36:48;0.60;99.90
9768;DHT22;4923;52.520;13.494;2024-01-06T13:39:34;0.60;99.90
9768;DHT22;4923;52.520;13.494;2024-01-06T13:42:21;0.60;99.90
9768;DHT22;4923;52.520;13.494;2024-01-06T13:45:08;0.60;99.90
9768;DHT22;4923;52.520;13.494;2024-01-06T13:47:55;0.70;99.90
9768;DHT22;4923;52.520;13.494;2024-01-06T13:50:44;0.70;99.90
9768;DHT22;4923;52.520;13.494;2024-01-06T13:53:32;0.70;99.90
9768;DHT22;4923;52.520;13.494;2024-01-06T13:56:18;0.70;99.90
9768;DHT22;4923;52.520;13.494;2024-01-06T13:59:06;0.70;99.90
9768;DHT22;4923;52.520;13.494;2024-01-06T14:01:53;0.60;99.90
9768;DHT22;4923;52.520;13.494;2024-01-06T14:04:40;0.60;99.90
9768;DHT22;4923;52.520;13.494;2024-01-06T14:07:29;0.50;99.90
9768;DHT22;4923;52.520;13.494;2024-01-06T14:10:15;0.40;99.90
9768;DHT22;4923;52.520;13.494;2024-01-06T14:13:03;0.40;99.90
9768;DHT22;4923;52.520;13.494;2024-01-06T14:15:49;0.30;99.90
9768;DHT22;4923;52.520;13.494;2024-01-06T14:18:36;0.30;99.90
9768;DHT22;4923;52.520;13.494;2024-01-06T14:21:23;0.20;99.90
9768;DHT22;4923;52.520;13.494;2024-01-06T14:24:11;0.20;99.90
9768;DHT22;4923;52.520;13.494;2024-01-06T14:26:58;0.30;99.90
9768;DHT22;4923;52.520;13.494;2024-01-06T14:29:45;0.30;99.90
9768;DHT22;4923;52.520;13.494;2024-01-06T14:32:33;0.40;99.90
9768;DHT22;4923;52.520;13.494;2024-01-06T14:35:21;0.40;99.90
9768;DHT22;4923;52.520;13.494;2024-01-06T14:38:07;0.30;99.90
9768;DHT22;4923;52.520;13.494;2024-01-06T14:40:56;0.20;99.90
9768;DHT22;4923;52.520;13.494;2024-01-06T14:43:43;0.30;99.90
9768;DHT22;4923;52.520;13.494;2024-01-06T14:46:30;0.30;99.90
9768;DHT22;4923;52.520;13.494;2024-01-06T14:49:19;0.30;99.90
9768;DHT22;4923;52.520;13.494;2024-01-06T14:52:06;0.30;99.90
9768;DHT22;4923;52.520;13.494;2024-01-06T14:54:53;0.40;99.90
9768;DHT22;4923;52.520;13.494;2024-01-06T14:57:42;0.40;99.90
9768;DHT22;4923;52.520;13.494;2024-01-06T15:00:29;0.40;99.90
9768;DHT22;4923;52.520;13.494;2024-01-06T15:03:16;0.40;99.90
9768;DHT22;4923;52.520;13.494;2024-01-06T15:06:04;0.30;99.90
9768;DHT22;4923;52.520;13.494;2024-01-06T15:08:51;0.40;99.90
9768;DHT22;4923;52.520;13.494;2024-01-06T15:11:37;0.50;99.90
9768;DHT22;4923;52.520;13.494;2024-01-06T15:14:26;0.50;99.90
9768;DHT22;4923;52.520;13.494;2024-01-06T15:17:12;0.50;99.90
9768;DHT22;4923;52.520;13.494;2024-01-06T15:19:59;0.50;99.90
9768;DHT22;4923;52.520;13.494;2024-01-06T15:22:46;0.50;99.90
9768;DHT22;4923;52.520;13.494;2024-01-06T15:25:33;0.40;99.90
9768;DHT22;4923;52.520;13.494;2024-01-06T15:28:21;0.40;99.90
9768;DHT22;4923;52.520;13.494;2024-01-06T15:31:09;0.30;99.90
9768;DHT22;4923;52.520;13.494;2024-01-06T15:33:56;0.30;99.90
9768;DHT22;4923;52.520;13.494;2024-01-06T15:36:42;0.30;99.90
9768;DHT22;4923;52.520;13.494;2024-01-06T15:39:29;0.30;99.90
9768;DHT22;4923;52.520;13.494;2024-01-06T15:42:16;0.30;99.90
9768;DHT22;4923;52.520;13.494;2024-01-06T15:45:04;0.40;99.90
9768;DHT22;4923;52.520;13.494;2024-01-06T15:47:52;0.40;99.90
9768;DHT22;4923;52.520;13.494;2024-01-06T15:50:39;0.40;99.90
9768;DHT22;4923;52.520;13.494;2024-01-06T15:53:26;0.40;99.90
9768;DHT22;4923;52.520;13.494;2024-01-06T15:56:13;0.40;99.90
9768;DHT22;4923;52.520;13.494;2024-01-06T15:59:00;0.40;99.90
9768;DHT22;4923;52.520;13.494;2024-01-06T16:01:47;0.30;99.90
9768;DHT22;4923;52.520;13.494;2024-01-06T16:04:35;0.30;99.90
9768;DHT22;4923;52.520;13.494;2024-01-06T16:07:22;0.30;99.90
9768;DHT22;4923;52.520;13.494;2024-01-06T16:10:09;0.40;99.90
9768;DHT22;4923;52.520;13.494;2024-01-06T16:12:57;0.40;99.90
9768;DHT22;4923;52.520;13.494;2024-01-06T16:15:45;0.30;99.90
9768;DHT22;4923;52.520;13.494;2024-01-06T16:18:32;0.20;99.90
9768;DHT22;4923;52.520;13.494;2024-01-06T16:21:24;0.30;99.90
9768;DHT22;4923;52.520;13.494;2024-01-06T16:24:11;0.30;99.90
9768;DHT22;4923;52.520;13.494;2024-01-06T16:26:58;0.40;99.90
9768;DHT22;4923;52.520;13.494;2024-01-06T16:29:45;0.30;99.90
9768;DHT22;4923;52.520;13.494;2024-01-06T16:32:32;0.40;99.90
9768;DHT22;4923;52.520;13.494;2024-01-06T16:35:18;0.30;99.90
9768;DHT22;4923;52.520;13.494;2024-01-06T16:38:07;0.30;99.90
9768;DHT22;4923;52.520;13.494;2024-01-06T16:40:54;0.30;99.90
9768;DHT22;4923;52.520;13.494;2024-01-06T16:43:41;0.30;99.90
9768;DHT22;4923;52.520;13.494;2024-01-06T16:46:28;0.20;99.90
9768;DHT22;4923;52.520;13.494;2024-01-06T16:49:15;0.30;99.90
9768;DHT22;4923;52.520;13.494;2024-01-06T16:52:02;0.30;99.90
9768;DHT22;4923;52.520;13.494;2024-01-06T16:54:50;0.30;99.90
9768;DHT22;4923;52.520;13.494;2024-01-06T16:57:37;0.30;99.90
9768;DHT22;4923;52.520;13.494;2024-01-06T17:00:24;0.20;99.90
9768;DHT22;4923;52.520;13.494;2024-01-06T17:03:11;0.30;99.90
9768;DHT22;4923;52.520;13.494;2024-01-06T17:05:58;0.20;99.90
9768;DHT22;4923;52.520;13.494;2024-01-06T17:08:45;0.20;99.90
9768;DHT22;4923;52.520;13.494;2024-01-06T17:11:33;0.20;99.90
9768;DHT22;4923;52.520;13.494;2024-01-06T17:14:20;0.20;99.90
9768;DHT22;4923;52.520;13.494;2024-01-06T17:17:07;0.30;99.90
9768;DHT22;4923;52.520;13.494;2024-01-06T17:19:54;0.40;99.90
9768;DHT22;4923;52.520;13.494;2024-01-06T17:22:41;0.50;99.90
9768;DHT22;4923;52.520;13.494;2024-01-06T17:25:30;0.60;99.90
9768;DHT22;4923;52.520;13.494;2024-01-06T17:28:18;0.90;99.90
9768;DHT22;4923;52.520;13.494;2024-01-06T17:31:05;1.30;99.90
9768;DHT22;4923;52.520;13.494;2024-01-06T17:33:52;1.40;99.90
9768;DHT22;4923;52.520;13.494;2024-01-06T17:36:39;0.90;99.90
9768;DHT22;4923;52.520;13.494;2024-01-06T17:39:26;0.70;99.90
9768;DHT22;4923;52.520;13.494;2024-01-06T17:42:13;0.60;99.90
9768;DHT22;4923;52.520;13.494;2024-01-06T17:45:01;0.50;99.90
9768;DHT22;4923;52.520;13.494;2024-01-06T17:47:48;0.30;99.90
9768;DHT22;4923;52.520;13.494;2024-01-06T17:50:35;0.40;99.90
9768;DHT22;4923;52.520;13.494;2024-01-06T17:53:22;0.20;99.90
9768;DHT22;4923;52.520;13.494;2024-01-06T17:56:09;0.10;99.90
9768;DHT22;4923;52.520;13.494;2024-01-06T17:58:56;0.10;99.90
9768;DHT22;4923;52.520;13.494;2024-01-06T18:01:48;0.10;99.90
9768;DHT22;4923;52.520;13.494;2024-01-06T18:04:35;0.00;99.90
9768;DHT22;4923;52.520;13.494;2024-01-06T18:07:22;0.00;99.90
9768;DHT22;4923;52.520;13.494;2024-01-06T18:10:11;0.00;99.90
9768;DHT22;4923;52.520;13.494;2024-01-06T18:12:58;0.00;99.90